Time;durP1;ratioP1;P1;durP2;ratioP2;P2;SDS_P1;SDS_P2;PMS_P1;PMS_P2;Temp;Humidity;BMP_temperature;BMP_pressure;BME280_temperature;BME280_humidity;BME280_pressure;Samples;Min_cycle;Max_cycle;Signal;HPM_P1;HPM_P2
2022/08/12 00:43:58;;;;;;;8.27;4.50;;;;;;;17.90;57.34;101015.31;5066575;28;20115;-79
2022/08/12 00:46:35;;;;;;;7.57;4.05;;;;;;;17.82;57.56;101018.91;5064757;28;20468;-79
2022/08/12 00:49:01;;;;;;;7.32;4.22;;;;;;;17.85;57.51;101015.06;5052420;28;20033;-78
2022/08/12 00:52:04;;;;;;;5.13;3.45;;;;;;;17.91;57.16;101010.81;5034110;28;20040;-79
2022/08/12 00:54:15;;;;;;;5.38;3.78;;;;;;;17.93;57.02;101012.28;5053957;28;20036;-80
2022/08/12 00:56:41;;;;;;;8.55;4.20;;;;;;;18.00;56.96;101012.41;5071357;28;20036;-80
2022/08/12 00:59:08;;;;;;;16.58;4.45;;;;;;;18.08;56.57;101017.69;5071459;28;20507;-79
2022/08/12 01:01:35;;;;;;;11.93;3.25;;;;;;;18.17;56.25;101006.97;5070673;28;20535;-80
2022/08/12 01:12:24;;;;;;;;;;;;;;;18.06;56.64;100997.50;5067817;28;20040;-80
2022/08/12 01:14:52;;;;;;;18.77;4.10;;;;;;;18.15;55.87;101006.31;5054522;28;19920;-80
2022/08/12 01:17:21;;;;;;;6.70;3.10;;;;;;;18.19;55.62;101008.44;5065498;28;20062;-80
2022/08/12 01:19:51;;;;;;;9.18;3.78;;;;;;;18.14;55.75;101010.81;5035405;28;20041;-81
2022/08/12 01:22:25;;;;;;;9.45;3.35;;;;;;;17.91;56.25;101017.00;5050631;28;20489;-79
2022/08/12 01:25:02;;;;;;;7.45;3.53;;;;;;;17.30;58.22;101018.56;5036486;28;20036;-80
2022/08/12 01:27:31;;;;;;;8.10;3.30;;;;;;;17.04;59.47;101008.13;5064976;28;20116;-80
2022/08/12 01:30:00;;;;;;;5.43;3.20;;;;;;;17.08;59.26;101007.66;5069655;28;20039;-80
2022/08/12 01:32:27;;;;;;;6.60;3.95;;;;;;;17.09;59.37;101005.78;5050987;28;20085;-80
2022/08/12 01:35:12;;;;;;;7.50;3.88;;;;;;;17.16;59.24;101012.13;5053491;28;20093;-80
2022/08/12 01:38:01;;;;;;;8.07;3.80;;;;;;;17.17;59.28;101011.09;5045502;28;20052;-79
2022/08/12 01:40:30;;;;;;;13.00;4.15;;;;;;;17.20;59.20;101008.06;5049987;28;20036;-80
2022/08/12 01:43:06;;;;;;;4.43;3.05;;;;;;;17.27;58.90;100997.53;5069687;28;20386;-80
2022/08/12 01:45:33;;;;;;;5.93;3.35;;;;;;;17.31;58.67;101001.50;5067760;28;20389;-79
2022/08/12 01:48:24;;;;;;;5.60;2.60;;;;;;;17.36;58.51;101000.97;5056732;28;20037;-80
2022/08/12 01:51:00;;;;;;;8.13;2.40;;;;;;;17.44;58.07;100997.44;5032321;28;20063;-80
2022/08/12 01:53:31;;;;;;;;;;;;;;;17.41;58.09;100997.78;5046124;28;20035;-79
2022/08/12 01:55:58;;;;;;;7.50;2.40;;;;;;;17.54;57.50;101000.72;5040382;28;19919;-80
2022/08/12 02:01:19;;;;;;;3.22;2.03;;;;;;;17.59;57.05;101001.03;5050239;28;20036;-80
2022/08/12 02:13:26;;;;;;;3.40;1.80;;;;;;;17.11;57.97;100988.59;5066709;28;20093;-80
2022/08/12 02:15:58;;;;;;;6.78;2.15;;;;;;;17.08;57.91;100993.44;5051672;28;20055;-80
2022/08/12 02:18:49;;;;;;;3.42;2.15;;;;;;;16.89;58.32;100989.31;5048823;28;20097;-78
2022/08/12 02:22:02;;;;;;;5.88;2.10;;;;;;;16.80;58.86;100988.53;5044938;28;20122;-78
2022/08/12 02:24:32;;;;;;;6.30;2.75;;;;;;;16.89;58.36;100986.66;5037071;28;20429;-80
2022/08/12 02:27:00;;;;;;;5.32;2.28;;;;;;;16.86;58.18;100985.19;5048453;28;20067;-80
2022/08/12 02:29:27;;;;;;;2.67;2.10;;;;;;;16.82;58.02;100984.69;5050727;28;20492;-80
2022/08/12 02:31:56;;;;;;;6.75;2.55;;;;;;;16.84;57.88;100972.00;5030442;28;20119;-80
2022/08/12 02:34:22;;;;;;;4.25;1.88;;;;;;;16.88;57.54;100988.50;5072298;28;20036;-80
2022/08/12 02:36:48;;;;;;;5.57;2.30;;;;;;;16.84;57.50;100985.34;5049668;28;20033;-80
2022/08/12 02:39:15;;;;;;;3.80;2.00;;;;;;;16.89;57.09;100989.31;5085698;28;20044;-80
2022/08/12 02:41:44;;;;;;;5.07;1.70;;;;;;;16.92;56.97;100983.63;5062361;28;20388;-80
2022/08/12 02:44:14;;;;;;;2.45;1.63;;;;;;;16.93;56.86;100983.47;5044465;28;20036;-81
2022/08/12 02:46:43;;;;;;;3.97;2.47;;;;;;;16.93;56.50;100993.34;5062012;28;20500;-80
2022/08/12 02:49:48;;;;;;;7.18;2.00;;;;;;;16.92;56.41;100984.47;5081324;28;20067;-81
2022/08/12 02:52:15;;;;;;;8.40;2.35;;;;;;;16.95;56.44;100985.97;5071100;28;20035;-81
2022/08/12 02:54:43;;;;;;;5.03;2.30;;;;;;;16.89;56.28;100984.81;5043601;28;20028;-80
2022/08/12 02:57:12;;;;;;;2.65;2.00;;;;;;;16.72;56.68;100976.88;5066734;28;20469;-80
2022/08/12 02:59:40;;;;;;;4.53;2.00;;;;;;;16.55;57.10;100978.75;5050884;28;20036;-80
2022/08/12 03:02:11;;;;;;;6.60;2.10;;;;;;;16.44;57.19;100987.97;5038312;28;20115;-80
2022/08/12 03:04:45;;;;;;;4.88;2.15;;;;;;;16.38;57.28;100977.97;5065080;28;20036;-81
2022/08/12 03:07:19;;;;;;;3.25;1.95;;;;;;;16.37;57.51;100982.47;5068243;28;20074;-81
2022/08/12 03:09:49;;;;;;;4.60;2.30;;;;;;;16.37;57.30;100973.66;5029923;28;20095;-80
2022/08/12 03:12:17;;;;;;;5.15;1.95;;;;;;;16.40;57.45;100975.97;5067053;28;20481;-79
2022/08/12 03:14:43;;;;;;;7.50;1.90;;;;;;;16.37;57.65;100974.47;5048021;28;20111;-80
2022/08/12 03:17:47;;;;;;;5.50;2.00;;;;;;;16.28;57.76;100972.81;5064165;28;20435;-80
2022/08/12 03:20:16;;;;;;;11.30;1.95;;;;;;;16.22;57.83;100973.50;5075482;28;20044;-80
2022/08/12 03:22:44;;;;;;;2.22;2.00;;;;;;;16.26;57.69;100966.81;5067513;28;20032;-80
2022/08/12 03:25:26;;;;;;;3.13;2.17;;;;;;;16.21;57.76;100966.50;5034306;28;20051;-80
2022/08/12 03:27:57;;;;;;;6.07;1.90;;;;;;;16.18;57.73;100964.97;5060896;28;20029;-80
2022/08/12 03:30:25;;;;;;;4.00;2.10;;;;;;;16.19;57.73;100958.66;5066817;28;20028;-80
2022/08/12 03:32:54;;;;;;;7.18;2.08;;;;;;;16.11;57.63;100962.19;5061728;28;20480;-81
2022/08/12 03:35:26;;;;;;;2.63;1.60;;;;;;;15.85;58.18;100963.16;5023849;28;20036;-80
2022/08/12 03:37:55;;;;;;;3.15;1.75;;;;;;;15.54;59.11;100963.81;5046851;28;20035;-80
2022/08/12 04:02:33;;;;;;;4.75;2.00;;;;;;;14.71;62.80;100950.19;5067605;28;20388;-81
2022/08/12 04:05:01;;;;;;;3.40;1.98;;;;;;;14.67;62.80;100941.69;5045915;28;20205;-81
2022/08/12 04:07:30;;;;;;;4.82;1.98;;;;;;;14.78;62.54;100940.56;5042972;28;20040;-81
2022/08/12 04:09:56;;;;;;;6.80;1.88;;;;;;;14.93;62.45;100948.00;5050439;28;20096;-81
2022/08/12 04:15:12;;;;;;;6.22;2.10;;;;;;;15.26;61.29;100945.41;5075986;28;20102;-79
2022/08/12 04:17:40;;;;;;;2.72;2.13;;;;;;;15.40;61.24;100953.78;5069072;28;20076;-79
2022/08/12 04:20:08;;;;;;;2.20;1.95;;;;;;;15.51;60.99;100948.16;5058572;28;20036;-80
2022/08/12 04:22:35;;;;;;;2.08;1.60;;;;;;;15.61;61.00;100954.16;5045729;28;20098;-80
2022/08/12 04:25:01;;;;;;;7.00;1.88;;;;;;;15.66;60.61;100953.66;5066579;28;20032;-80
2022/08/12 04:27:30;;;;;;;5.03;2.20;;;;;;;15.68;60.65;100949.00;5051173;28;20473;-81
2022/08/12 04:29:57;;;;;;;2.80;1.92;;;;;;;15.63;60.93;100949.50;5061269;28;20036;-81
2022/08/12 04:32:26;;;;;;;2.75;1.90;;;;;;;15.59;61.25;100950.00;5032194;28;20037;-80
2022/08/12 04:34:53;;;;;;;2.22;2.03;;;;;;;15.53;61.82;100948.00;5066025;28;20044;-80
2022/08/12 04:37:19;;;;;;;3.92;1.95;;;;;;;15.35;62.59;100944.44;5031737;28;20029;-80
2022/08/12 04:39:46;;;;;;;6.13;2.55;;;;;;;15.32;62.78;100949.28;5063718;28;20040;-80
2022/08/12 04:42:12;;;;;;;2.42;2.20;;;;;;;15.36;62.89;100947.94;5052122;28;20029;-80
2022/08/12 04:44:38;;;;;;;3.22;1.98;;;;;;;15.45;62.93;100948.81;5061720;28;20116;-80
2022/08/12 04:47:04;;;;;;;8.07;2.63;;;;;;;15.48;62.82;100943.97;5036274;28;20039;-80
2022/08/12 04:49:32;;;;;;;7.65;2.60;;;;;;;15.53;62.81;100946.13;5040891;28;20493;-80
2022/08/12 04:51:59;;;;;;;6.00;2.60;;;;;;;15.55;62.88;100943.31;5044198;28;20040;-81
2022/08/12 04:54:26;;;;;;;2.20;1.95;;;;;;;15.58;62.84;100951.81;5055351;28;20039;-78
2022/08/12 04:56:52;;;;;;;4.32;2.25;;;;;;;15.57;62.98;100949.31;5064529;28;20028;-78
2022/08/12 04:59:18;;;;;;;2.60;2.40;;;;;;;15.55;63.09;100952.13;5051028;28;20047;-81
2022/08/12 05:01:50;;;;;;;4.07;2.60;;;;;;;15.54;63.19;100945.16;5042600;28;20036;-80
2022/08/12 05:04:19;;;;;;;4.60;2.70;;;;;;;15.55;63.54;100940.63;5048216;28;20098;-80
2022/08/12 05:06:44;;;;;;;3.60;2.65;;;;;;;15.59;63.40;100940.13;5048593;28;20029;-80
2022/08/12 05:09:10;;;;;;;5.57;3.20;;;;;;;15.63;63.23;100941.50;5024808;28;20037;-80
2022/08/12 05:11:36;;;;;;;7.70;3.17;;;;;;;15.63;63.44;100940.66;5028620;28;20033;-80
2022/08/12 05:14:02;;;;;;;5.25;2.90;;;;;;;15.64;63.60;100944.97;5049994;28;20036;-80
2022/08/12 05:16:29;;;;;;;6.35;2.88;;;;;;;15.58;63.95;100942.97;5040517;28;20028;-80
2022/08/12 05:18:55;;;;;;;7.82;3.35;;;;;;;15.47;64.62;100944.97;5054678;28;20056;-81
2022/08/12 05:21:21;;;;;;;8.68;3.70;;;;;;;15.34;65.34;100948.09;5073138;28;20131;-81
2022/08/12 05:23:47;;;;;;;7.53;3.20;;;;;;;15.31;65.98;100948.44;5057497;28;20455;-80
2022/08/12 05:26:12;;;;;;;7.00;3.55;;;;;;;15.28;66.58;100947.91;5032816;28;20117;-80
2022/08/12 05:28:39;;;;;;;6.53;3.58;;;;;;;15.27;66.85;100952.44;5049341;28;20040;-80
2022/08/12 05:31:05;;;;;;;6.30;3.50;;;;;;;15.30;66.82;100949.44;5055872;28;20079;-80
2022/08/12 05:33:39;;;;;;;5.85;3.75;;;;;;;15.29;67.39;100949.59;5080413;28;20041;-80
2022/08/12 05:36:13;;;;;;;8.57;3.85;;;;;;;15.12;68.41;100958.38;5068414;28;20025;-81
2022/08/12 05:38:56;;;;;;;5.82;3.83;;;;;;;14.97;69.16;100954.69;5071059;28;20135;-80
2022/08/12 05:41:23;;;;;;;8.98;3.88;;;;;;;14.82;70.11;100962.41;5055203;28;20047;-81
2022/08/12 05:43:51;;;;;;;3.67;3.30;;;;;;;14.71;70.65;100955.53;5037220;28;20052;-79
2022/08/12 05:46:21;;;;;;;6.18;3.50;;;;;;;14.61;71.59;100960.97;5069868;28;20595;-79
2022/08/12 05:48:48;;;;;;;4.28;3.70;;;;;;;14.55;72.26;100965.09;5072398;28;20433;-81
2022/08/12 05:51:14;;;;;;;8.90;4.18;;;;;;;14.52;72.84;100963.56;5033680;28;20131;-81
2022/08/12 05:53:41;;;;;;;6.32;3.85;;;;;;;14.52;73.13;100960.09;5043380;28;20040;-79
2022/08/12 06:08:29;;;;;;;5.75;4.38;;;;;;;14.96;77.29;100958.31;5182300;27;20200;-79
2022/08/12 06:10:55;;;;;;;6.43;4.30;;;;;;;14.92;77.49;100957.81;5122167;27;20122;-77
2022/08/12 06:13:21;;;;;;;6.50;3.90;;;;;;;14.95;77.34;100956.66;5143123;27;20039;-79
2022/08/12 06:15:48;;;;;;;14.40;4.65;;;;;;;15.03;77.18;100969.16;5125966;27;20049;-79
2022/08/12 06:18:13;;;;;;;7.43;4.07;;;;;;;15.08;76.99;100958.88;5133620;27;20031;-80
2022/08/12 06:20:39;;;;;;;9.52;4.45;;;;;;;15.17;76.80;100962.38;5147489;27;20377;-80
2022/08/12 06:23:05;;;;;;;9.52;3.80;;;;;;;15.21;76.93;100959.22;5123823;27;20099;-80
2022/08/12 06:25:33;;;;;;;6.80;4.15;;;;;;;15.25;77.12;100955.25;5141700;27;20403;-80
2022/08/12 06:28:01;;;;;;;4.72;3.75;;;;;;;15.30;77.77;100959.25;5101942;27;20023;-79
2022/08/12 06:30:28;;;;;;;9.77;4.22;;;;;;;15.34;78.16;100961.44;5135192;27;20036;-80
2022/08/12 06:32:54;;;;;;;6.35;3.60;;;;;;;15.33;79.02;100965.09;5132121;27;20042;-80
2022/08/12 06:35:20;;;;;;;5.25;4.00;;;;;;;15.38;79.18;100960.09;5127058;27;20125;-79
2022/08/12 06:37:49;;;;;;;5.22;3.63;;;;;;;15.43;79.38;100961.44;5133089;27;20038;-79
2022/08/12 06:42:46;;;;;;;5.60;4.40;;;;;;;15.48;79.61;100959.13;5151324;27;20071;-77
2022/08/12 06:43:05;;;;;;;4.28;3.88;;;;;;;15.54;80.14;100965.63;5136835;27;20035;-78
2022/08/12 06:45:32;;;;;;;7.57;3.60;;;;;;;15.66;79.32;100966.13;5116917;27;20034;-80
2022/08/12 06:48:07;;;;;;;5.55;3.78;;;;;;;15.79;78.96;100958.47;5148923;27;20027;-79
2022/08/12 06:50:33;;;;;;;7.43;4.07;;;;;;;15.88;79.25;100953.97;5152522;27;20041;-80
2022/08/12 06:52:59;;;;;;;6.30;3.60;;;;;;;15.99;78.88;100956.34;5146657;27;20042;-80
2022/08/12 06:55:25;;;;;;;6.03;3.08;;;;;;;16.07;79.20;100958.16;5143857;27;20026;-77
2022/08/12 06:57:56;;;;;;;12.63;4.15;;;;;;;16.12;79.31;100952.31;5133329;27;20491;-80
2022/08/12 07:00:24;;;;;;;7.18;4.20;;;;;;;16.18;79.40;100951.66;5149765;27;20082;-80
2022/08/12 07:02:56;;;;;;;7.20;3.58;;;;;;;16.26;79.13;100950.00;5134683;27;20026;-80
2022/08/12 07:05:23;;;;;;;5.75;3.25;;;;;;;16.36;79.12;100948.78;5148289;27;20038;-80
2022/08/12 07:07:52;;;;;;;4.90;3.30;;;;;;;16.50;78.71;100943.75;5113805;27;20047;-79
2022/08/12 07:10:22;;;;;;;5.10;2.80;;;;;;;16.59;78.50;100948.06;5128962;27;20368;-79
2022/08/12 07:12:53;;;;;;;4.15;3.30;;;;;;;16.65;78.45;100953.69;5132128;27;20080;-80
2022/08/12 07:15:24;;;;;;;6.07;2.58;;;;;;;16.72;77.98;100944.84;5116490;27;20034;-80
2022/08/12 07:17:57;;;;;;;7.28;3.20;;;;;;;16.90;77.80;100949.09;5137165;27;20810;-80
2022/08/12 07:20:23;;;;;;;6.18;3.38;;;;;;;17.14;77.46;100951.88;5096154;27;20027;-80
2022/08/12 07:22:49;;;;;;;3.58;2.65;;;;;;;17.40;77.06;100948.88;5118388;27;20425;-79
2022/08/12 07:25:30;;;;;;;4.88;2.78;;;;;;;17.66;76.79;100947.66;5135304;27;20034;-80
2022/08/12 07:28:00;;;;;;;5.35;2.80;;;;;;;17.91;76.06;100960.00;5117791;27;20507;-79
2022/08/12 07:30:38;;;;;;;4.55;2.47;;;;;;;18.19;75.63;100946.91;5134758;27;20045;-80
2022/08/12 07:33:07;;;;;;;4.82;2.50;;;;;;;18.58;75.11;100950.34;5133422;27;20038;-80
2022/08/12 07:35:43;;;;;;;4.20;2.58;;;;;;;19.01;73.42;100940.78;5135779;27;20026;-80
2022/08/12 07:38:32;;;;;;;4.63;2.47;;;;;;;19.24;70.86;100941.66;5124661;27;20041;-79
2022/08/12 07:41:04;;;;;;;4.85;2.60;;;;;;;19.30;71.26;100941.72;5112225;27;20031;-79
2022/08/12 07:43:34;;;;;;;4.15;2.60;;;;;;;19.53;70.75;100945.22;5110325;27;20118;-79
2022/08/12 07:46:03;;;;;;;6.88;2.30;;;;;;;19.80;69.74;100940.94;5125090;27;20110;-79
2022/08/12 07:48:35;;;;;;;5.38;2.10;;;;;;;19.85;68.97;100935.00;5153280;27;20025;-79
2022/08/12 07:51:01;;;;;;;2.50;1.90;;;;;;;20.04;68.46;100936.22;5114912;27;20113;-81
2022/08/12 07:53:26;;;;;;;5.20;2.30;;;;;;;20.24;67.51;100938.22;5135567;27;20101;-81
2022/08/12 07:55:52;;;;;;;5.22;2.10;;;;;;;20.31;66.57;100935.53;5112976;27;20510;-81
2022/08/12 07:58:18;;;;;;;6.40;2.78;;;;;;;20.42;66.09;100937.69;5118402;27;20030;-79
2022/08/12 08:00:44;;;;;;;18.63;2.50;;;;;;;20.46;65.35;100935.44;5131769;27;20383;-82
2022/08/12 08:03:12;;;;;;;4.05;1.80;;;;;;;20.55;65.18;100931.56;5115712;27;20456;-80
2022/08/12 08:05:48;;;;;;;9.73;1.90;;;;;;;20.63;65.01;100921.66;5114973;27;20101;-80
2022/08/12 08:08:15;;;;;;;2.58;1.48;;;;;;;20.48;65.09;100927.19;5118754;27;20511;-80
2022/08/12 08:10:41;;;;;;;2.58;1.50;;;;;;;20.30;65.51;100923.16;5095022;27;20039;-80
2022/08/12 08:13:07;;;;;;;4.38;1.60;;;;;;;20.15;65.85;100923.25;5093278;27;20521;-79
2022/08/12 08:15:38;;;;;;;2.92;1.73;;;;;;;20.24;65.99;100923.94;5135649;27;20494;-80
2022/08/12 08:18:09;;;;;;;2.78;1.45;;;;;;;20.27;65.48;100921.72;5104273;27;20034;-80
2022/08/12 08:20:42;;;;;;;2.67;1.33;;;;;;;20.33;65.05;100915.56;5113938;27;20121;-80
2022/08/12 08:23:11;;;;;;;2.65;1.23;;;;;;;20.32;64.76;100913.88;5119286;27;20037;-80
2022/08/12 08:25:38;;;;;;;2.75;1.52;;;;;;;20.32;65.48;100918.44;5098053;27;20079;-79
2022/08/12 08:28:12;;;;;;;2.50;1.33;;;;;;;20.23;65.02;100917.75;5117218;27;20483;-80
2022/08/12 08:30:42;;;;;;;3.47;1.60;;;;;;;20.23;65.17;100923.09;5116727;27;20026;-79
2022/08/12 08:33:10;;;;;;;2.35;1.33;;;;;;;20.25;65.28;100920.22;5111043;27;20033;-80
2022/08/12 08:35:40;;;;;;;2.88;1.52;;;;;;;20.28;65.22;100923.34;5115612;27;20031;-80
2022/08/12 08:38:16;;;;;;;6.55;1.77;;;;;;;20.31;65.19;100917.59;5115779;27;20039;-80
2022/08/12 08:43:27;;;;;;;2.72;1.52;;;;;;;20.52;64.63;100918.53;5124486;27;19911;-87
2022/08/12 08:45:56;;;;;;;3.78;1.55;;;;;;;20.70;63.84;100909.91;5122163;22;20057;-82
2022/08/12 08:48:23;;;;;;;5.45;2.25;;;;;;;20.83;63.30;100908.31;5086680;28;20056;-82
2022/08/12 08:50:50;;;;;;;3.50;1.55;;;;;;;20.97;63.16;100908.38;5073270;28;20438;-82
2022/08/12 08:53:17;;;;;;;4.25;1.27;;;;;;;21.00;63.16;100908.81;5084242;28;20047;-82
2022/08/12 08:55:43;;;;;;;2.70;1.67;;;;;;;21.01;62.91;100909.63;5057665;28;20024;-82
2022/08/12 08:58:10;;;;;;;1.83;1.00;;;;;;;21.00;62.73;100903.44;5089035;28;20038;-82
2022/08/12 09:00:39;;;;;;;5.95;1.30;;;;;;;21.07;62.40;100898.91;5071786;28;20477;-82
2022/08/12 09:03:06;;;;;;;1.33;1.00;;;;;;;21.23;62.20;100904.91;5063224;28;20115;-82
2022/08/12 09:05:34;;;;;;;2.58;1.25;;;;;;;21.32;61.98;100897.50;5086344;28;20038;-82
2022/08/12 09:08:02;;;;;;;2.42;1.25;;;;;;;21.28;62.54;100901.63;5081757;28;20082;-82
2022/08/12 09:10:29;;;;;;;5.32;1.23;;;;;;;21.32;62.45;100898.31;5099541;27;20419;-82
2022/08/12 09:15:40;;;;;;;2.08;1.00;;;;;;;21.55;61.73;100893.56;5088524;28;20036;-82
2022/08/12 09:18:07;;;;;;;2.53;1.20;;;;;;;21.55;61.23;100890.88;5079904;28;20035;-82
2022/08/12 09:20:34;;;;;;;3.95;1.40;;;;;;;21.57;61.21;100888.81;5066079;28;20035;-82
2022/08/12 09:23:01;;;;;;;4.68;1.02;;;;;;;21.63;60.78;100884.50;5067124;28;20032;-82
2022/08/12 09:25:30;;;;;;;4.70;1.40;;;;;;;21.76;60.47;100881.78;5050410;28;20024;-82
2022/08/12 09:28:00;;;;;;;1.40;1.00;;;;;;;21.85;60.97;100882.41;5067133;28;20496;-82
2022/08/12 09:30:26;;;;;;;3.22;1.27;;;;;;;21.90;61.03;100887.16;5042900;28;20497;-82
2022/08/12 09:32:53;;;;;;;4.45;1.20;;;;;;;21.92;60.28;100885.94;5082632;28;20040;-82
2022/08/12 09:35:24;;;;;;;1.80;1.02;;;;;;;22.02;60.13;100881.97;5063910;28;20086;-82
2022/08/12 09:37:52;;;;;;;5.07;1.52;;;;;;;22.09;60.14;100872.00;5049821;28;20037;-81
2022/08/12 09:40:20;;;;;;;4.50;1.20;;;;;;;22.24;59.38;100879.84;5069573;28;20047;-82
2022/08/12 09:45:32;;;;;;;4.70;1.23;;;;;;;22.42;58.30;100881.03;5084585;28;20131;-85
2022/08/12 09:48:06;;;;;;;4.70;1.48;;;;;;;22.52;57.95;100883.28;5064186;28;20070;-81
2022/08/12 09:50:33;;;;;;;2.72;0.93;;;;;;;22.65;57.90;100880.53;5061186;28;20036;-81
2022/08/12 09:53:14;;;;;;;3.35;1.38;;;;;;;22.70;56.86;100879.91;5066367;28;20539;-82
2022/08/12 09:55:50;;;;;;;3.97;0.73;;;;;;;22.76;57.13;100872.84;5081501;28;20389;-82
2022/08/12 09:58:40;;;;;;;3.33;1.35;;;;;;;22.83;56.70;100870.09;5071890;28;20041;-81
2022/08/12 10:01:06;;;;;;;3.10;1.30;;;;;;;22.89;56.80;100875.44;5079729;28;20169;-82
2022/08/12 10:03:35;;;;;;;3.35;1.17;;;;;;;22.95;56.12;100865.66;5069902;28;20066;-81
2022/08/12 10:06:04;;;;;;;2.17;1.38;;;;;;;22.97;56.38;100860.03;5094015;28;20542;-82
2022/08/12 10:08:30;;;;;;;2.55;1.27;;;;;;;23.03;55.85;100873.50;5099669;28;20029;-82
2022/08/12 10:13:43;;;;;;;2.13;1.25;;;;;;;23.10;55.79;100867.22;5071830;28;20028;-84
2022/08/12 10:16:25;;;;;;;3.30;0.95;;;;;;;23.14;55.85;100863.06;5056457;28;20555;-85
2022/08/12 10:18:58;;;;;;;4.05;0.80;;;;;;;23.22;55.44;100865.47;5062239;28;20029;-82
2022/08/12 10:21:29;;;;;;;6.18;1.20;;;;;;;23.28;55.57;100853.81;5087207;28;20072;-84
2022/08/12 10:23:56;;;;;;;2.90;1.10;;;;;;;23.34;55.62;100852.13;5082047;28;20032;-85
2022/08/12 10:31:55;;;;;;;9.18;1.42;;;;;;;23.76;54.48;100848.06;5056613;28;20032;-82
2022/08/12 10:34:22;;;;;;;1.65;1.10;;;;;;;23.88;53.60;100846.25;5063753;28;20032;-82
2022/08/12 10:36:50;;;;;;;4.80;1.05;;;;;;;23.88;53.16;100851.66;5041360;28;20042;-82
2022/08/12 10:39:17;;;;;;;5.82;1.20;;;;;;;23.96;53.22;100839.75;5058815;28;20418;-83
2022/08/12 10:44:30;;;;;;;3.30;0.90;;;;;;;24.19;52.49;100832.03;5089795;28;20068;-82
2022/08/12 10:46:56;;;;;;;11.75;1.20;;;;;;;24.27;52.29;100829.84;5056586;28;20557;-82
2022/08/12 10:49:27;;;;;;;2.80;1.00;;;;;;;24.38;51.84;100828.25;5065197;28;20112;-82
2022/08/12 10:51:57;;;;;;;3.13;1.00;;;;;;;24.56;50.55;100825.75;5087667;28;20047;-82
2022/08/12 10:54:26;;;;;;;7.03;1.35;;;;;;;24.62;49.86;100824.84;5087588;28;20031;-82
2022/08/12 10:56:54;;;;;;;5.80;1.08;;;;;;;24.75;49.52;100821.13;5081372;28;20048;-82
2022/08/12 10:59:20;;;;;;;7.63;1.20;;;;;;;24.88;49.76;100814.66;5086356;28;20110;-82
2022/08/12 11:01:48;;;;;;;6.93;0.90;;;;;;;25.00;49.58;100809.34;5069489;28;20035;-82
2022/08/12 11:04:15;;;;;;;2.53;1.10;;;;;;;25.05;49.14;100812.16;5074577;28;20028;-82
2022/08/12 11:06:49;;;;;;;6.22;1.13;;;;;;;25.21;48.24;100812.53;5077646;28;20393;-81
2022/08/12 11:09:16;;;;;;;7.38;1.90;;;;;;;25.29;47.94;100808.66;5080431;28;20082;-82
2022/08/12 11:11:49;;;;;;;4.57;1.13;;;;;;;25.40;47.78;100810.53;5069206;28;20040;-83
2022/08/12 11:14:16;;;;;;;4.18;1.00;;;;;;;25.55;47.75;100806.50;5087118;28;20083;-82
2022/08/12 11:16:43;;;;;;;7.88;1.35;;;;;;;25.72;47.52;100812.09;5078738;28;20028;-83
2022/08/12 11:19:10;;;;;;;4.10;0.93;;;;;;;25.84;47.16;100807.47;5081753;28;20034;-82
2022/08/12 11:21:36;;;;;;;7.35;1.25;;;;;;;25.86;46.89;100802.66;5051064;28;20081;-82
2022/08/12 11:24:03;;;;;;;4.07;1.00;;;;;;;25.92;46.17;100795.44;5043593;28;20037;-82
2022/08/12 11:26:28;;;;;;;2.67;0.70;;;;;;;26.00;46.24;100794.25;5073933;28;20074;-82
2022/08/12 11:28:54;;;;;;;3.63;0.93;;;;;;;26.13;45.57;100795.88;5090223;28;20032;-82
2022/08/12 11:31:20;;;;;;;4.30;1.05;;;;;;;26.17;44.69;100790.78;5062047;28;20036;-82
2022/08/12 11:33:48;;;;;;;3.60;0.98;;;;;;;26.31;44.47;100786.75;5068206;28;20028;-82
2022/08/12 11:36:14;;;;;;;4.90;1.10;;;;;;;26.46;44.41;100786.22;5063671;28;20126;-82
2022/08/12 11:38:40;;;;;;;3.78;0.75;;;;;;;26.56;44.12;100779.31;5073085;28;20036;-82
2022/08/12 11:41:06;;;;;;;8.45;1.15;;;;;;;26.62;43.87;100775.63;5087615;28;20038;-82
2022/08/12 11:43:32;;;;;;;5.80;0.80;;;;;;;26.69;43.33;100784.47;5052615;28;20493;-82
2022/08/12 11:45:59;;;;;;;4.90;0.80;;;;;;;26.69;41.78;100776.31;5070261;28;20480;-82
2022/08/12 11:48:25;;;;;;;4.30;1.10;;;;;;;26.55;40.74;100780.41;5069668;28;20039;-82
2022/08/12 11:50:51;;;;;;;5.03;1.00;;;;;;;26.54;41.05;100782.28;5077508;28;20103;-82
2022/08/12 11:53:17;;;;;;;5.78;0.80;;;;;;;26.61;40.52;100774.00;5086796;28;20048;-83
2022/08/12 11:55:43;;;;;;;4.05;0.80;;;;;;;26.72;40.27;100775.00;5061404;28;20462;-83
2022/08/12 11:58:09;;;;;;;2.28;0.65;;;;;;;26.82;39.78;100779.78;5085167;28;20043;-82
2022/08/12 12:00:35;;;;;;;1.17;0.65;;;;;;;26.84;38.94;100773.03;5063506;28;20040;-82
2022/08/12 12:03:01;;;;;;;1.85;0.57;;;;;;;26.88;38.19;100774.16;5054227;28;20119;-82
2022/08/12 12:05:27;;;;;;;5.70;1.02;;;;;;;26.96;38.20;100772.13;5067850;28;20144;-82
2022/08/12 12:07:53;;;;;;;3.55;1.08;;;;;;;27.06;38.80;100768.78;5066861;28;20055;-82
2022/08/12 12:10:19;;;;;;;2.03;0.60;;;;;;;27.16;38.98;100768.94;5090708;28;20028;-82
2022/08/12 12:12:46;;;;;;;8.02;0.93;;;;;;;27.17;39.10;100767.06;5071665;28;20104;-82
2022/08/12 12:15:12;;;;;;;2.45;0.90;;;;;;;27.20;39.46;100764.66;5065124;28;20036;-82
2022/08/12 12:17:40;;;;;;;2.47;0.70;;;;;;;27.34;39.05;100758.88;5048564;28;20039;-82
2022/08/12 12:20:09;;;;;;;6.07;0.70;;;;;;;27.47;39.00;100752.28;5063248;28;20032;-82
2022/08/12 12:22:35;;;;;;;2.50;0.85;;;;;;;27.58;38.49;100754.06;5082153;28;20085;-82
2022/08/12 12:25:02;;;;;;;2.08;0.93;;;;;;;27.59;38.51;100754.84;5077948;28;20070;-83
2022/08/12 12:27:27;;;;;;;1.25;0.60;;;;;;;27.68;37.92;100745.22;5083901;28;20031;-82
2022/08/12 12:29:56;;;;;;;3.80;0.85;;;;;;;27.82;37.59;100745.69;5072509;28;20028;-82
2022/08/12 12:32:22;;;;;;;2.83;1.15;;;;;;;27.82;37.52;100742.97;5086988;28;20036;-82
2022/08/12 12:34:48;;;;;;;3.13;0.70;;;;;;;27.88;37.50;100738.41;5067989;28;20055;-82
2022/08/12 12:37:14;;;;;;;3.15;0.80;;;;;;;27.92;37.11;100741.44;5099759;28;20393;-82
2022/08/12 12:39:42;;;;;;;2.15;0.75;;;;;;;27.98;36.67;100733.06;5086985;28;20032;-82
2022/08/12 12:42:07;;;;;;;2.70;0.85;;;;;;;28.06;36.71;100731.81;5088116;28;20092;-82
2022/08/12 12:44:34;;;;;;;2.55;0.90;;;;;;;28.18;36.60;100734.38;5061656;28;20053;-82
2022/08/12 12:46:59;;;;;;;1.67;0.85;;;;;;;28.20;36.67;100736.84;5086186;28;20032;-82
2022/08/12 12:49:25;;;;;;;4.65;1.00;;;;;;;28.23;37.10;100730.91;5097178;27;20051;-82
2022/08/12 12:51:52;;;;;;;3.00;1.00;;;;;;;28.12;36.53;100735.41;5013377;28;20402;-83
2022/08/12 12:54:18;;;;;;;1.90;0.75;;;;;;;28.12;37.26;100732.69;5090837;28;20504;-83
2022/08/12 12:56:48;;;;;;;2.88;0.90;;;;;;;28.20;37.30;100729.53;5054843;28;20250;-83
2022/08/12 12:59:17;;;;;;;3.97;0.90;;;;;;;28.35;36.64;100720.72;5079446;28;20123;-82
2022/08/12 13:01:43;;;;;;;5.03;0.80;;;;;;;28.49;36.46;100723.00;5071144;28;20028;-82
2022/08/12 13:04:10;;;;;;;4.45;0.80;;;;;;;28.60;35.97;100715.75;5069946;28;20094;-83
2022/08/12 13:06:40;;;;;;;2.55;0.80;;;;;;;28.67;35.51;100732.66;5067550;28;20028;-82
2022/08/12 13:09:05;;;;;;;2.05;1.08;;;;;;;28.70;35.49;100720.47;5087753;28;20033;-82
2022/08/12 13:11:31;;;;;;;0.88;0.73;;;;;;;28.71;35.21;100719.38;5079524;28;20043;-82
2022/08/12 13:13:58;;;;;;;5.55;0.93;;;;;;;28.81;35.11;100719.44;5068330;28;20489;-83
2022/08/12 13:16:28;;;;;;;4.45;1.13;;;;;;;28.78;34.82;100711.81;5050612;28;20024;-82
2022/08/12 13:18:54;;;;;;;1.50;0.73;;;;;;;28.57;35.21;100711.63;5081743;28;20055;-82
2022/08/12 13:21:20;;;;;;;5.47;0.82;;;;;;;28.58;35.64;100717.91;5063614;28;20116;-80
2022/08/12 13:23:49;;;;;;;2.15;1.17;;;;;;;28.69;35.46;100713.38;5068323;28;20024;-82
2022/08/12 13:26:16;;;;;;;1.55;0.77;;;;;;;28.76;35.29;100718.59;5071931;28;20032;-82
2022/08/12 13:28:44;;;;;;;9.75;1.20;;;;;;;28.76;34.99;100715.88;5070324;28;20032;-83
2022/08/12 13:31:12;;;;;;;2.35;0.90;;;;;;;28.84;34.95;100709.94;5085505;28;20063;-82
2022/08/12 13:33:38;;;;;;;2.67;0.70;;;;;;;28.90;35.19;100714.34;5081283;28;20040;-83